Time;durP1;ratioP1;P1;durP2;ratioP2;P2;SDS_P1;SDS_P2;PMS_P1;PMS_P2;Temp;Humidity;BMP_temperature;BMP_pressure;BME280_temperature;BME280_humidity;BME280_pressure;Samples;Min_cycle;Max_cycle;Signal;HPM_P1;HPM_P2
2023/05/20 00:01:01;;;;;;;12.70;4.10;;;13.80;99.90;;;;;;4997823;28;20049;-75
2023/05/20 00:03:28;;;;;;;14.50;4.30;;;13.80;99.90;;;;;;4998154;28;20088;-75
2023/05/20 00:05:54;;;;;;;10.15;4.38;;;13.90;99.90;;;;;;4997928;28;20050;-75
2023/05/20 00:08:19;;;;;;;13.55;5.15;;;13.90;99.90;;;;;;4997821;28;20038;-75
2023/05/20 00:10:45;;;;;;;14.45;4.60;;;13.90;99.90;;;;;;4980400;28;20420;-76
2023/05/20 00:13:11;;;;;;;11.50;4.03;;;13.90;99.90;;;;;;4997987;28;20031;-76
2023/05/20 00:15:37;;;;;;;11.63;4.55;;;13.90;99.90;;;;;;4979791;28;20332;-75
2023/05/20 00:18:03;;;;;;;9.38;4.28;;;13.80;99.90;;;;;;4997923;28;20045;-75
2023/05/20 00:20:29;;;;;;;9.88;4.32;;;13.80;99.90;;;;;;4997560;28;20389;-75
2023/05/20 00:22:54;;;;;;;9.32;4.10;;;13.80;99.90;;;;;;4980266;28;20046;-75
2023/05/20 00:25:20;;;;;;;13.02;4.35;;;13.80;99.90;;;;;;4980244;28;20053;-75
2023/05/20 00:27:46;;;;;;;10.45;4.90;;;13.80;99.90;;;;;;4979990;28;20113;-75
2023/05/20 00:30:12;;;;;;;12.40;4.60;;;13.70;99.90;;;;;;4997634;28;20041;-75
2023/05/20 00:32:38;;;;;;;9.30;3.90;;;13.70;99.90;;;;;;4980178;28;20416;-76
2023/05/20 00:35:04;;;;;;;12.52;4.70;;;13.70;99.90;;;;;;4964271;28;20101;-75
2023/05/20 00:37:30;;;;;;;9.70;4.53;;;13.60;99.90;;;;;;4997366;28;20038;-76
2023/05/20 00:39:56;;;;;;;11.40;4.90;;;13.50;99.90;;;;;;4979941;28;20053;-76
2023/05/20 00:42:26;;;;;;;12.00;4.70;;;13.50;99.90;;;;;;4980264;28;20042;-75
2023/05/20 00:44:53;;;;;;;12.38;5.30;;;13.50;99.90;;;;;;4997480;28;20041;-75
2023/05/20 00:47:22;;;;;;;14.60;5.05;;;13.60;99.90;;;;;;4980222;28;20340;-75
2023/05/20 00:49:50;;;;;;;12.55;4.80;;;13.50;99.90;;;;;;4997183;28;20344;-75
2023/05/20 00:52:17;;;;;;;10.52;4.50;;;13.50;99.90;;;;;;4979741;28;20053;-75
2023/05/20 00:54:43;;;;;;;12.95;4.80;;;13.50;99.90;;;;;;4996823;28;20046;-75
2023/05/20 00:57:10;;;;;;;10.52;3.92;;;13.50;99.90;;;;;;4996523;28;20453;-76
2023/05/20 00:59:37;;;;;;;13.50;4.50;;;13.50;99.90;;;;;;4996999;28;20034;-75
2023/05/20 01:02:06;;;;;;;9.90;4.13;;;13.40;99.90;;;;;;4997058;28;20403;-75
2023/05/20 01:04:32;;;;;;;9.38;4.43;;;13.40;99.90;;;;;;4996849;28;20039;-75
2023/05/20 01:07:01;;;;;;;10.57;4.53;;;13.40;99.90;;;;;;4997231;28;20046;-75
2023/05/20 01:09:27;;;;;;;9.35;4.28;;;13.40;99.90;;;;;;4979717;28;20042;-75
2023/05/20 01:12:08;;;;;;;13.07;4.70;;;13.40;99.90;;;;;;4997123;28;20046;-75
2023/05/20 01:14:37;;;;;;;10.93;4.93;;;13.40;99.90;;;;;;4979812;28;20340;-75
2023/05/20 01:17:09;;;;;;;11.02;4.20;;;13.30;99.90;;;;;;4996785;28;20451;-76
2023/05/20 01:19:44;;;;;;;12.85;4.65;;;13.30;99.90;;;;;;4997102;28;20053;-75
2023/05/20 01:22:12;;;;;;;10.38;4.13;;;13.30;99.90;;;;;;4979697;28;20109;-75
2023/05/20 01:24:42;;;;;;;7.65;4.18;;;13.30;99.90;;;;;;4979868;28;20042;-75
2023/05/20 01:27:10;;;;;;;8.40;3.80;;;13.30;99.90;;;;;;4981618;28;20042;-75
2023/05/20 01:29:37;;;;;;;9.50;4.32;;;13.30;99.90;;;;;;5000737;28;20424;-76
2023/05/20 01:32:10;;;;;;;12.32;4.05;;;13.30;99.90;;;;;;5000684;28;20332;-75
2023/05/20 01:34:37;;;;;;;8.43;3.80;;;13.30;99.90;;;;;;5001008;28;20348;-75
2023/05/20 01:37:05;;;;;;;8.98;3.63;;;13.20;99.90;;;;;;5000608;28;20066;-75
2023/05/20 01:39:35;;;;;;;9.27;3.90;;;13.20;99.90;;;;;;5000710;28;20046;-76
2023/05/20 01:42:02;;;;;;;8.38;3.75;;;13.20;99.90;;;;;;5000830;28;20081;-75
2023/05/20 01:44:28;;;;;;;11.43;3.70;;;13.20;99.90;;;;;;4983502;28;20130;-75
2023/05/20 01:46:54;;;;;;;10.32;4.43;;;13.20;99.90;;;;;;5000902;28;20375;-75
2023/05/20 01:49:20;;;;;;;10.18;3.85;;;13.20;99.90;;;;;;4983070;28;20043;-75
2023/05/20 01:51:46;;;;;;;7.28;3.85;;;13.20;99.90;;;;;;4983067;28;20054;-75
2023/05/20 01:54:11;;;;;;;15.60;5.05;;;13.20;99.90;;;;;;5000117;28;20112;-75
2023/05/20 01:56:38;;;;;;;8.23;4.00;;;13.20;99.90;;;;;;4999993;28;20397;-76
2023/05/20 01:59:04;;;;;;;8.02;4.20;;;13.20;99.90;;;;;;5000399;28;20141;-75
2023/05/20 02:01:29;;;;;;;8.73;4.10;;;13.20;99.90;;;;;;5000279;28;20042;-75
2023/05/20 02:03:55;;;;;;;11.70;4.03;;;13.10;99.90;;;;;;4982975;28;20125;-75
2023/05/20 02:06:20;;;;;;;8.95;4.43;;;13.10;99.90;;;;;;4982770;28;20050;-75
2023/05/20 02:08:46;;;;;;;10.68;4.13;;;13.00;99.90;;;;;;4983203;28;20046;-75
2023/05/20 02:11:12;;;;;;;12.07;4.53;;;13.10;99.90;;;;;;4982846;28;20122;-75
2023/05/20 02:13:38;;;;;;;12.52;3.92;;;13.10;99.90;;;;;;4999772;28;20078;-75
2023/05/20 02:16:04;;;;;;;8.93;4.00;;;13.00;99.90;;;;;;4982697;28;20132;-75
2023/05/20 02:18:31;;;;;;;9.75;3.90;;;13.00;99.90;;;;;;4999980;28;20053;-76
2023/05/20 02:21:02;;;;;;;11.15;4.55;;;12.90;99.90;;;;;;5000057;28;20050;-75
2023/05/20 02:23:29;;;;;;;9.43;4.82;;;12.90;99.90;;;;;;4999839;28;20046;-75
2023/05/20 02:25:55;;;;;;;12.73;4.40;;;12.90;99.90;;;;;;4999756;28;20092;-75
2023/05/20 02:28:20;;;;;;;8.52;4.22;;;12.90;99.90;;;;;;4999513;28;20439;-75
2023/05/20 02:30:46;;;;;;;9.27;4.35;;;12.90;99.90;;;;;;4982615;28;20053;-75
2023/05/20 02:33:12;;;;;;;8.68;3.75;;;12.80;99.90;;;;;;4999681;28;20336;-75
2023/05/20 02:35:38;;;;;;;9.77;3.95;;;12.80;99.90;;;;;;4966532;28;20050;-76
2023/05/20 02:38:04;;;;;;;10.35;4.90;;;12.80;99.90;;;;;;4998859;28;20038;-76
2023/05/20 02:40:30;;;;;;;8.68;3.72;;;12.80;99.90;;;;;;4999596;28;20049;-76
2023/05/20 02:42:56;;;;;;;10.27;3.83;;;12.80;99.90;;;;;;4982208;28;20344;-75
2023/05/20 02:45:22;;;;;;;9.27;4.25;;;12.90;99.90;;;;;;4999501;28;20309;-77
2023/05/20 02:47:48;;;;;;;8.63;4.20;;;12.90;99.90;;;;;;4982464;28;20052;-75
2023/05/20 02:50:13;;;;;;;8.75;3.95;;;12.80;99.90;;;;;;4999208;28;20412;-75
2023/05/20 02:52:41;;;;;;;8.27;4.30;;;12.90;99.90;;;;;;4982091;28;20129;-75
2023/05/20 02:55:07;;;;;;;12.65;4.35;;;12.90;99.90;;;;;;4998874;28;20058;-76
2023/05/20 02:57:36;;;;;;;10.30;3.90;;;12.80;99.90;;;;;;4965532;28;20046;-75
2023/05/20 03:00:06;;;;;;;8.73;4.30;;;12.80;99.90;;;;;;4999193;28;20042;-75
2023/05/20 03:02:32;;;;;;;8.48;4.15;;;12.80;99.90;;;;;;4999163;28;20117;-75
2023/05/20 03:04:58;;;;;;;5.90;3.50;;;12.80;99.90;;;;;;4999186;28;20074;-75
2023/05/20 03:07:24;;;;;;;8.00;3.80;;;12.90;99.90;;;;;;4981646;28;20456;-75
2023/05/20 03:09:51;;;;;;;7.05;3.90;;;12.90;99.90;;;;;;4998791;28;20046;-75
2023/05/20 03:12:17;;;;;;;7.15;4.00;;;12.90;99.90;;;;;;4999038;28;20452;-78
2023/05/20 03:14:43;;;;;;;7.03;3.95;;;12.80;99.90;;;;;;4998928;28;20050;-76
2023/05/20 03:17:10;;;;;;;11.63;4.28;;;12.80;99.90;;;;;;4998784;28;20057;-75
2023/05/20 03:19:36;;;;;;;8.25;3.90;;;12.80;99.90;;;;;;4998977;28;20057;-75
2023/05/20 03:22:02;;;;;;;7.32;4.25;;;12.90;99.90;;;;;;4981771;28;20042;-75
2023/05/20 03:24:28;;;;;;;8.85;4.13;;;12.90;99.90;;;;;;4981795;28;20054;-75
2023/05/20 03:26:54;;;;;;;9.77;4.00;;;12.90;99.90;;;;;;4998396;28;20046;-76
2023/05/20 03:29:22;;;;;;;8.05;4.10;;;12.80;99.90;;;;;;4998595;28;20039;-75
2023/05/20 03:31:48;;;;;;;8.70;3.95;;;12.70;99.90;;;;;;4998331;28;20042;-76
2023/05/20 03:34:13;;;;;;;9.27;4.20;;;12.70;99.90;;;;;;4981433;28;20042;-76
2023/05/20 03:36:39;;;;;;;7.90;3.95;;;12.60;99.90;;;;;;4965337;28;20049;-75
2023/05/20 03:39:05;;;;;;;7.80;4.00;;;12.60;99.90;;;;;;4998391;28;20042;-75
2023/05/20 03:41:31;;;;;;;6.20;3.45;;;12.60;99.90;;;;;;4981078;28;20458;-75
2023/05/20 03:43:57;;;;;;;7.00;3.33;;;12.60;99.90;;;;;;4998356;28;20042;-75
2023/05/20 03:46:22;;;;;;;5.75;3.60;;;12.70;99.90;;;;;;4981397;28;20121;-75
2023/05/20 03:48:48;;;;;;;8.27;3.75;;;12.70;99.90;;;;;;4998153;28;20056;-75
2023/05/20 03:51:14;;;;;;;8.85;3.75;;;12.70;99.90;;;;;;4980073;28;20117;-75
2023/05/20 03:53:39;;;;;;;7.90;3.60;;;12.70;99.90;;;;;;4980748;28;20039;-76
2023/05/20 03:56:05;;;;;;;8.25;3.40;;;12.80;99.90;;;;;;4980722;28;20082;-76
2023/05/20 03:58:31;;;;;;;6.07;3.20;;;12.80;99.90;;;;;;4998302;28;20089;-75
2023/05/20 04:00:57;;;;;;;9.68;3.72;;;12.90;99.90;;;;;;4980949;28;20054;-75
2023/05/20 04:03:23;;;;;;;10.05;3.88;;;12.90;99.90;;;;;;4998171;28;20046;-75
2023/05/20 04:05:49;;;;;;;6.88;3.35;;;13.00;99.90;;;;;;4997992;28;20042;-75
2023/05/20 04:08:17;;;;;;;11.02;3.97;;;13.00;99.90;;;;;;4980474;28;20054;-76
2023/05/20 04:10:43;;;;;;;8.07;3.47;;;13.10;99.90;;;;;;4980419;28;20057;-76
2023/05/20 04:13:10;;;;;;;6.97;3.58;;;13.20;99.90;;;;;;4964486;28;20046;-76
2023/05/20 04:15:37;;;;;;;6.15;3.10;;;13.20;99.90;;;;;;4997730;28;20526;-76
2023/05/20 04:18:04;;;;;;;7.63;3.45;;;13.30;99.90;;;;;;4998084;28;20048;-76
2023/05/20 04:20:30;;;;;;;7.32;3.40;;;13.40;99.90;;;;;;4997543;28;20046;-75
2023/05/20 04:22:56;;;;;;;8.10;3.20;;;13.40;99.90;;;;;;4997523;28;20042;-75
2023/05/20 04:25:22;;;;;;;5.20;3.05;;;13.40;99.90;;;;;;4980477;28;20050;-76
2023/05/20 04:27:48;;;;;;;10.13;3.15;;;13.50;99.90;;;;;;4979766;28;20060;-76
2023/05/20 04:30:17;;;;;;;5.82;2.63;;;13.60;99.90;;;;;;4980363;28;20049;-76
2023/05/20 04:32:43;;;;;;;8.68;2.22;;;13.60;99.90;;;;;;4997427;28;20052;-75
2023/05/20 04:35:10;;;;;;;7.38;2.70;;;13.70;99.90;;;;;;4964226;28;20121;-76
2023/05/20 04:37:37;;;;;;;4.65;2.17;;;13.60;99.90;;;;;;4997408;28;20042;-76
2023/05/20 04:40:05;;;;;;;6.93;2.45;;;13.70;99.90;;;;;;4997581;28;20109;-75
2023/05/20 04:42:32;;;;;;;5.93;2.15;;;13.80;99.90;;;;;;4980513;28;20379;-75
2023/05/20 04:45:00;;;;;;;6.53;1.98;;;13.80;99.90;;;;;;4980015;28;20050;-76
2023/05/20 04:47:27;;;;;;;4.78;2.10;;;13.90;99.90;;;;;;4979975;28;20084;-75
2023/05/20 04:49:56;;;;;;;5.38;1.98;;;13.90;99.90;;;;;;4997132;28;20046;-78
2023/05/20 04:52:23;;;;;;;5.53;2.30;;;13.90;99.90;;;;;;4997403;28;20054;-75
2023/05/20 04:54:49;;;;;;;5.45;1.90;;;14.00;99.90;;;;;;4996922;28;20093;-75
2023/05/20 04:57:19;;;;;;;7.10;1.92;;;13.90;99.90;;;;;;4996763;28;20043;-75
2023/05/20 04:59:46;;;;;;;3.50;1.50;;;13.80;99.90;;;;;;4997000;28;20042;-76
2023/05/20 05:02:12;;;;;;;6.28;1.58;;;13.90;99.90;;;;;;4996888;28;20331;-75
2023/05/20 05:04:37;;;;;;;4.38;1.40;;;14.00;99.90;;;;;;4997218;28;20114;-75
2023/05/20 05:07:04;;;;;;;4.40;1.42;;;14.00;99.90;;;;;;4979940;28;20327;-76
2023/05/20 05:09:29;;;;;;;8.98;1.60;;;14.00;99.90;;;;;;4980167;28;20077;-76
2023/05/20 05:11:55;;;;;;;4.25;1.40;;;14.00;99.90;;;;;;4979723;28;20447;-75
2023/05/20 05:14:22;;;;;;;2.30;1.02;;;14.00;99.90;;;;;;4979888;28;20510;-75
2023/05/20 05:16:48;;;;;;;2.88;1.50;;;14.00;99.90;;;;;;4979541;28;20042;-76
2023/05/20 05:19:14;;;;;;;3.72;1.10;;;14.00;99.90;;;;;;4963843;28;20073;-76
2023/05/20 05:21:40;;;;;;;4.88;1.00;;;14.20;99.90;;;;;;4997121;28;20340;-75
2023/05/20 05:24:06;;;;;;;4.47;1.42;;;14.30;99.90;;;;;;4996728;28;20435;-76
2023/05/20 05:26:31;;;;;;;2.15;1.05;;;14.40;99.90;;;;;;4996704;28;20058;-75
2023/05/20 05:28:57;;;;;;;3.70;1.10;;;14.40;99.90;;;;;;4996983;28;20042;-76
2023/05/20 05:31:23;;;;;;;3.15;1.20;;;14.40;99.90;;;;;;4963386;28;20454;-75
2023/05/20 05:33:48;;;;;;;2.95;1.15;;;14.40;99.90;;;;;;4979947;28;20097;-76
2023/05/20 05:36:15;;;;;;;3.70;1.10;;;14.40;99.90;;;;;;4997035;28;20038;-76
2023/05/20 05:38:41;;;;;;;7.25;1.08;;;14.60;99.90;;;;;;4979472;28;20100;-76
2023/05/20 05:41:07;;;;;;;3.55;1.10;;;14.70;99.90;;;;;;4996907;28;20046;-76
2023/05/20 05:43:33;;;;;;;4.35;1.20;;;14.80;99.90;;;;;;4979845;28;20324;-76
2023/05/20 05:45:59;;;;;;;4.05;1.00;;;15.00;99.90;;;;;;4996595;28;20042;-76
2023/05/20 05:48:24;;;;;;;2.15;0.82;;;15.20;99.90;;;;;;4996561;28;20049;-76
2023/05/20 05:50:50;;;;;;;1.67;0.95;;;15.40;99.90;;;;;;4996628;28;20042;-76
2023/05/20 05:53:16;;;;;;;4.50;1.10;;;15.30;99.90;;;;;;4996831;28;20120;-75
2023/05/20 05:55:42;;;;;;;2.55;0.80;;;15.00;99.90;;;;;;4996338;28;20082;-75
2023/05/20 05:58:07;;;;;;;3.67;1.35;;;14.90;99.90;;;;;;4978947;28;20160;-75
2023/05/20 06:00:33;;;;;;;3.33;0.82;;;14.90;99.90;;;;;;4979700;28;20053;-76
2023/05/20 06:02:59;;;;;;;3.40;0.90;;;15.00;99.90;;;;;;4996717;28;20308;-75
2023/05/20 06:05:24;;;;;;;1.33;0.60;;;15.10;99.90;;;;;;4996685;28;20038;-75
2023/05/20 06:07:50;;;;;;;4.07;0.80;;;15.10;99.90;;;;;;4979142;28;20088;-75
2023/05/20 06:10:16;;;;;;;4.00;1.13;;;15.20;99.90;;;;;;4996608;28;20101;-75
2023/05/20 06:12:41;;;;;;;2.05;0.80;;;15.30;99.90;;;;;;4996370;28;20051;-76
2023/05/20 06:15:07;;;;;;;4.50;0.80;;;15.20;99.90;;;;;;5000105;28;20075;-76
2023/05/20 06:17:33;;;;;;;4.88;0.90;;;15.30;99.90;;;;;;4999738;28;20105;-76
2023/05/20 06:19:59;;;;;;;5.50;1.65;;;15.40;99.90;;;;;;4989996;28;20065;-76
2023/05/20 06:22:25;;;;;;;2.05;0.73;;;15.60;99.90;;;;;;4990074;28;20093;-76
2023/05/20 06:24:50;;;;;;;2.40;0.85;;;15.80;99.90;;;;;;4987048;28;20038;-76
2023/05/20 06:27:16;;;;;;;2.75;1.10;;;15.80;99.90;;;;;;4968066;28;20053;-76
2023/05/20 06:29:41;;;;;;;5.50;0.80;;;15.60;99.90;;;;;;4989297;28;20038;-76
2023/05/20 06:32:07;;;;;;;2.95;1.15;;;15.70;99.90;;;;;;4982432;28;20097;-70
2023/05/20 06:34:33;;;;;;;3.17;1.00;;;15.80;99.90;;;;;;4999711;28;20465;-70
2023/05/20 06:36:59;;;;;;;1.98;0.88;;;15.60;99.90;;;;;;4999838;28;20065;-69
2023/05/20 06:39:24;;;;;;;3.25;0.82;;;15.80;99.90;;;;;;4999574;28;20042;-70
2023/05/20 06:41:51;;;;;;;4.45;1.10;;;15.90;99.90;;;;;;4999797;28;20034;-70
2023/05/20 06:44:17;;;;;;;2.97;1.38;;;15.90;99.90;;;;;;4999386;28;20427;-80
2023/05/20 06:46:43;;;;;;;2.25;1.10;;;16.00;99.90;;;;;;4966215;28;20343;-68
2023/05/20 06:49:09;;;;;;;2.60;1.15;;;16.00;99.90;;;;;;4999573;28;20042;-69
2023/05/20 06:51:34;;;;;;;5.53;1.08;;;16.00;99.90;;;;;;4999211;28;20121;-69
2023/05/20 06:54:00;;;;;;;4.70;0.98;;;16.10;99.90;;;;;;4999130;28;20479;-69
2023/05/20 06:56:26;;;;;;;3.83;0.90;;;16.20;99.90;;;;;;4981619;28;20454;-69
2023/05/20 06:58:51;;;;;;;2.10;0.88;;;16.10;99.90;;;;;;4999444;28;20331;-69
2023/05/20 07:01:17;;;;;;;3.50;0.90;;;15.90;99.90;;;;;;4999043;28;20042;-71
2023/05/20 07:03:43;;;;;;;2.92;0.98;;;16.00;99.90;;;;;;4981849;28;20046;-69
2023/05/20 07:06:09;;;;;;;2.17;0.90;;;15.90;99.90;;;;;;4982114;28;20042;-78
2023/05/20 07:08:35;;;;;;;2.63;1.02;;;15.90;99.90;;;;;;5014350;28;20431;-78
2023/05/20 07:11:01;;;;;;;3.75;1.20;;;16.00;99.90;;;;;;4981847;28;20043;-77
2023/05/20 07:13:26;;;;;;;3.35;1.10;;;15.70;99.90;;;;;;4949658;28;20038;-78
2023/05/20 07:15:52;;;;;;;1.92;0.90;;;15.70;99.90;;;;;;4997023;28;20046;-73
2023/05/20 07:18:18;;;;;;;3.85;1.27;;;15.80;99.90;;;;;;4982861;28;20030;-69
2023/05/20 07:20:44;;;;;;;4.13;0.70;;;16.10;99.90;;;;;;4983698;28;20038;-71
2023/05/20 07:23:10;;;;;;;2.85;1.00;;;16.20;99.90;;;;;;4997074;28;20096;-69
2023/05/20 07:25:35;;;;;;;2.95;0.80;;;16.20;99.90;;;;;;4998742;28;20431;-69
2023/05/20 07:28:01;;;;;;;2.53;0.90;;;16.10;99.90;;;;;;4998216;28;20037;-70
2023/05/20 07:30:27;;;;;;;3.03;1.20;;;16.10;99.90;;;;;;4997722;28;20412;-71
2023/05/20 07:32:53;;;;;;;2.05;0.90;;;16.20;99.90;;;;;;4998704;28;20121;-70
2023/05/20 07:35:18;;;;;;;2.95;1.10;;;16.30;99.90;;;;;;4998805;28;20038;-71
2023/05/20 07:37:44;;;;;;;2.40;1.00;;;16.40;99.90;;;;;;4998762;28;20034;-70
2023/05/20 07:40:10;;;;;;;4.03;1.17;;;16.60;99.90;;;;;;4998432;28;20088;-70
2023/05/20 07:42:36;;;;;;;3.03;1.00;;;16.50;99.90;;;;;;4998504;28;20054;-70
2023/05/20 07:45:02;;;;;;;4.45;1.10;;;16.70;99.90;;;;;;4998780;28;20053;-71
2023/05/20 07:47:27;;;;;;;2.78;0.63;;;16.80;99.90;;;;;;5000935;28;20046;-70
2023/05/20 07:49:53;;;;;;;3.22;1.10;;;16.90;99.90;;;;;;4997005;28;20042;-71
2023/05/20 07:52:19;;;;;;;5.85;1.25;;;17.00;99.90;;;;;;4998199;28;20050;-71
2023/05/20 07:54:44;;;;;;;2.45;0.88;;;17.10;99.90;;;;;;4998104;28;20351;-70
2023/05/20 07:57:10;;;;;;;3.47;1.08;;;17.10;99.90;;;;;;4997608;28;20042;-71
2023/05/20 07:59:36;;;;;;;2.03;1.00;;;17.00;99.90;;;;;;4998106;28;20125;-72
2023/05/20 08:02:01;;;;;;;3.20;0.90;;;17.10;99.90;;;;;;4997853;28;20084;-71
2023/05/20 08:04:27;;;;;;;2.22;1.15;;;16.90;99.90;;;;;;4997886;28;20415;-71
2023/05/20 08:06:53;;;;;;;2.58;1.13;;;17.10;99.90;;;;;;4997758;28;20046;-70
2023/05/20 08:09:19;;;;;;;2.75;1.20;;;17.30;99.90;;;;;;4997126;28;20057;-75
2023/05/20 08:11:45;;;;;;;3.90;1.48;;;16.80;99.90;;;;;;4980708;28;20042;-75
2023/05/20 08:14:10;;;;;;;4.10;1.23;;;16.70;99.90;;;;;;4998008;28;20368;-76
2023/05/20 08:16:36;;;;;;;4.30;1.33;;;16.80;99.90;;;;;;4997597;28;20092;-75
2023/05/20 08:19:02;;;;;;;6.25;0.90;;;17.00;99.90;;;;;;4997962;28;20128;-75
2023/05/20 08:21:28;;;;;;;8.00;1.33;;;17.20;99.90;;;;;;4997749;28;20341;-75
2023/05/20 08:23:54;;;;;;;4.75;1.20;;;17.40;99.90;;;;;;4996986;28;20050;-75
2023/05/20 08:26:20;;;;;;;3.30;1.20;;;17.50;99.90;;;;;;4996721;28;20046;-75
2023/05/20 08:28:47;;;;;;;6.85;1.55;;;17.30;99.90;;;;;;4997028;28;20057;-76
2023/05/20 08:31:13;;;;;;;6.78;2.38;;;17.40;99.90;;;;;;4997534;28;20046;-73
2023/05/20 08:33:39;;;;;;;10.20;3.40;;;17.40;99.90;;;;;;4996482;28;20069;-73
2023/05/20 08:36:07;;;;;;;12.05;3.83;;;17.50;99.90;;;;;;4996917;28;20042;-78
2023/05/20 08:38:32;;;;;;;13.30;4.53;;;17.60;99.90;;;;;;4996418;28;20494;-78
2023/05/20 08:40:58;;;;;;;6.53;2.15;;;17.70;99.90;;;;;;4996335;28;20043;-78
2023/05/20 08:43:25;;;;;;;4.18;1.48;;;17.70;99.90;;;;;;4996216;28;20038;-69
2023/05/20 08:45:51;;;;;;;9.40;2.85;;;17.70;99.90;;;;;;4996237;28;20328;-68
2023/05/20 08:48:17;;;;;;;5.65;1.92;;;18.00;99.90;;;;;;4997302;28;20035;-70
2023/05/20 08:50:49;;;;;;;3.80;1.40;;;18.40;99.90;;;;;;4997400;28;20034;-69
2023/05/20 08:53:15;;;;;;;3.15;1.17;;;18.60;99.90;;;;;;4997321;28;20046;-69
2023/05/20 08:55:45;;;;;;;6.22;1.45;;;18.80;99.90;;;;;;4997070;28;20055;-68
2023/05/20 08:58:11;;;;;;;5.40;1.70;;;18.90;99.90;;;;;;4996601;28;20105;-81
2023/05/20 09:00:37;;;;;;;4.75;1.75;;;19.00;99.90;;;;;;4980159;28;20328;-82
2023/05/20 09:03:04;;;;;;;4.18;1.63;;;18.90;99.90;;;;;;4979854;28;20057;-76
2023/05/20 09:05:30;;;;;;;4.07;1.35;;;18.50;99.90;;;;;;4996023;28;20100;-72
2023/05/20 09:08:10;;;;;;;3.65;1.55;;;18.50;99.90;;;;;;4996926;28;20336;-73
2023/05/20 09:10:37;;;;;;;3.28;1.50;;;18.40;99.90;;;;;;4996064;28;20061;-74
2023/05/20 09:13:03;;;;;;;2.88;1.52;;;18.50;99.90;;;;;;4995960;28;20420;-73
2023/05/20 09:15:30;;;;;;;5.57;1.50;;;18.50;99.90;;;;;;4997089;28;20387;-74
2023/05/20 09:17:59;;;;;;;3.80;1.73;;;18.40;99.90;;;;;;4996199;28;20069;-79
2023/05/20 09:20:25;;;;;;;15.05;1.73;;;18.50;99.90;;;;;;4996171;28;20070;-79
2023/05/20 09:22:52;;;;;;;8.02;1.50;;;18.50;99.90;;;;;;4996080;28;20046;-79
2023/05/20 09:25:19;;;;;;;7.85;1.67;;;18.80;99.90;;;;;;4979567;28;20042;-80
2023/05/20 09:27:45;;;;;;;8.77;2.03;;;18.80;99.90;;;;;;4979388;28;20085;-80
2023/05/20 09:30:11;;;;;;;3.10;1.42;;;19.00;99.90;;;;;;4963688;28;20082;-80
2023/05/20 09:32:37;;;;;;;2.70;1.42;;;19.10;99.90;;;;;;4979794;28;20050;-80
2023/05/20 09:35:05;;;;;;;4.43;1.48;;;19.10;99.90;;;;;;4979604;28;20424;-80
2023/05/20 09:37:33;;;;;;;2.90;1.50;;;19.00;99.90;;;;;;4996267;28;20042;-79
2023/05/20 09:40:08;;;;;;;2.58;1.30;;;19.10;99.90;;;;;;4979338;28;20036;-77
2023/05/20 09:42:42;;;;;;;7.75;1.80;;;19.20;99.90;;;;;;4996953;28;20085;-80
2023/05/20 09:45:08;;;;;;;19.27;1.90;;;19.50;99.90;;;;;;4996952;28;20039;-78
2023/05/20 09:47:37;;;;;;;6.97;1.77;;;19.60;99.90;;;;;;4998007;28;20443;-77
2023/05/20 09:50:08;;;;;;;3.97;1.67;;;20.00;99.90;;;;;;5000487;28;20137;-78
2023/05/20 09:52:38;;;;;;;3.90;1.40;;;20.10;99.90;;;;;;5000234;28;20047;-78
2023/05/20 09:55:11;;;;;;;7.50;1.35;;;20.20;99.90;;;;;;4999275;28;20486;-77
2023/05/20 09:57:37;;;;;;;3.38;1.63;;;20.40;99.90;;;;;;4999933;28;20046;-81
2023/05/20 10:00:05;;;;;;;2.67;1.30;;;20.50;99.90;;;;;;5000378;28;20049;-81
2023/05/20 10:02:32;;;;;;;3.55;1.30;;;20.60;99.90;;;;;;4999716;28;20096;-81
2023/05/20 10:05:02;;;;;;;3.45;1.42;;;20.50;99.90;;;;;;4999405;28;20375;-80
2023/05/20 10:07:48;;;;;;;3.50;1.50;;;20.40;99.90;;;;;;4999141;28;20122;-80
2023/05/20 10:10:36;;;;;;;4.73;1.60;;;20.70;99.90;;;;;;4998986;28;20077;-79
2023/05/20 10:13:34;;;;;;;4.38;1.63;;;20.60;99.90;;;;;;4982643;28;20853;-80
2023/05/20 10:16:10;;;;;;;2.60;1.50;;;20.60;99.90;;;;;;4998975;28;20045;-82
2023/05/20 10:19:04;;;;;;;3.60;1.40;;;20.70;99.90;;;;;;4999160;28;20053;-78
2023/05/20 10:21:31;;;;;;;9.55;1.83;;;20.90;99.90;;;;;;4999800;28;20336;-81
2023/05/20 10:24:06;;;;;;;10.02;1.70;;;21.00;99.90;;;;;;4999728;28;20046;-82
2023/05/20 10:26:40;;;;;;;6.30;1.48;;;20.70;99.90;;;;;;4999803;28;20121;-81
2023/05/20 10:29:19;;;;;;;4.78;1.65;;;20.60;99.90;;;;;;5000002;28;20042;-81
2023/05/20 10:31:50;;;;;;;5.70;1.55;;;20.70;99.90;;;;;;4998772;28;20462;-81
2023/05/20 10:34:17;;;;;;;4.22;1.42;;;20.80;99.90;;;;;;4999661;28;20038;-81
2023/05/20 10:36:57;;;;;;;5.05;1.70;;;20.90;99.90;;;;;;4998829;28;20484;-81
2023/05/20 10:39:32;;;;;;;3.03;1.40;;;21.00;99.90;;;;;;4999673;28;20042;-69
2023/05/20 10:42:06;;;;;;;7.07;1.50;;;21.10;99.90;;;;;;4999654;28;20097;-69
2023/05/20 10:44:45;;;;;;;2.53;1.40;;;21.30;99.90;;;;;;4999340;28;20432;-70
2023/05/20 10:47:12;;;;;;;5.60;1.70;;;21.30;99.90;;;;;;4998479;28;20074;-70
2023/05/20 10:49:45;;;;;;;4.10;1.58;;;21.40;99.90;;;;;;4999327;28;20038;-71
2023/05/20 10:52:12;;;;;;;5.43;1.50;;;21.30;99.90;;;;;;4999397;28;20301;-71
2023/05/20 10:54:46;;;;;;;4.82;1.80;;;21.20;99.90;;;;;;4999337;28;20053;-69
2023/05/20 10:57:12;;;;;;;5.28;1.60;;;21.30;99.90;;;;;;4997941;28;20051;-70
2023/05/20 10:59:39;;;;;;;3.40;1.83;;;21.60;99.90;;;;;;4998939;28;20133;-70
2023/05/20 11:02:06;;;;;;;4.70;1.20;;;21.90;99.90;;;;;;4999235;28;20048;-71
2023/05/20 11:04:32;;;;;;;5.35;1.60;;;22.30;99.90;;;;;;4998187;28;20101;-70
2023/05/20 11:06:58;;;;;;;4.30;1.60;;;22.60;99.90;;;;;;4999073;28;20054;-71
2023/05/20 11:09:23;;;;;;;6.15;1.30;;;22.70;99.90;;;;;;4999103;28;20038;-71
2023/05/20 11:11:51;;;;;;;2.53;1.23;;;22.50;99.90;;;;;;4998781;28;20083;-71
2023/05/20 11:14:18;;;;;;;6.68;1.30;;;22.50;99.90;;;;;;4999120;28;20053;-73
2023/05/20 11:16:45;;;;;;;2.70;1.35;;;22.80;99.90;;;;;;4999186;28;20051;-71
2023/05/20 11:19:17;;;;;;;4.60;1.67;;;23.10;99.90;;;;;;4998933;28;20043;-70
2023/05/20 11:21:46;;;;;;;3.08;1.50;;;22.90;99.90;;;;;;4999520;28;20038;-69
2023/05/20 11:24:12;;;;;;;5.10;1.52;;;22.90;99.90;;;;;;4999228;28;20046;-69
2023/05/20 11:26:39;;;;;;;4.05;1.42;;;22.80;99.90;;;;;;4998543;28;20045;-70
2023/05/20 11:29:05;;;;;;;5.95;1.70;;;22.60;99.90;;;;;;4991779;28;20042;-75
2023/05/20 11:31:31;;;;;;;3.90;1.30;;;22.10;99.90;;;;;;4955388;28;20325;-76
2023/05/20 11:34:01;;;;;;;6.43;1.38;;;21.80;99.90;;;;;;4979695;28;20041;-69
2023/05/20 11:36:31;;;;;;;11.15;1.75;;;21.60;99.90;;;;;;4979191;28;20576;-69
2023/05/20 11:38:57;;;;;;;8.48;2.25;;;21.90;99.90;;;;;;4979224;28;20051;-70
2023/05/20 11:41:27;;;;;;;10.32;2.58;;;22.20;99.90;;;;;;4978977;28;20043;-71
2023/05/20 11:43:59;;;;;;;3.22;1.42;;;22.00;99.90;;;;;;4961999;28;20038;-68
2023/05/20 11:46:26;;;;;;;3.08;1.38;;;22.00;99.90;;;;;;4979069;28;20069;-68
2023/05/20 11:48:56;;;;;;;4.18;1.67;;;22.50;99.90;;;;;;4978909;28;20049;-70
2023/05/20 11:51:29;;;;;;;2.90;1.20;;;22.90;99.90;;;;;;4978538;28;20062;-69
2023/05/20 11:54:01;;;;;;;3.80;1.15;;;23.20;99.90;;;;;;4978698;28;20035;-69
2023/05/20 11:56:29;;;;;;;4.32;1.65;;;23.40;99.90;;;;;;4979103;28;20054;-69
2023/05/20 11:58:58;;;;;;;4.40;1.60;;;23.20;99.90;;;;;;4978364;28;20336;-69
2023/05/20 12:01:23;;;;;;;4.63;1.40;;;22.70;99.90;;;;;;4978583;28;20097;-69
2023/05/20 12:04:09;;;;;;;4.50;1.40;;;22.90;99.90;;;;;;4961476;28;20038;-69
2023/05/20 12:06:38;;;;;;;4.60;1.35;;;23.20;99.90;;;;;;4978053;28;20082;-69
2023/05/20 12:09:06;;;;;;;7.10;2.08;;;23.60;99.90;;;;;;4978669;28;20342;-69
2023/05/20 12:11:36;;;;;;;6.00;2.35;;;23.30;99.90;;;;;;4977619;28;20155;-69
2023/05/20 12:14:03;;;;;;;3.38;1.40;;;23.20;99.90;;;;;;4961621;28;20113;-69
2023/05/20 12:16:30;;;;;;;5.00;1.80;;;23.10;99.90;;;;;;4978523;28;20171;-69
2023/05/20 12:18:56;;;;;;;6.72;2.13;;;23.50;99.90;;;;;;4978410;28;20085;-69
2023/05/20 12:21:22;;;;;;;3.80;1.90;;;23.80;99.90;;;;;;4978300;28;20070;-69
2023/05/20 12:23:47;;;;;;;4.85;2.25;;;23.60;99.90;;;;;;4978249;28;20039;-69
2023/05/20 12:26:13;;;;;;;5.03;1.38;;;23.60;99.90;;;;;;4978074;28;20043;-69
2023/05/20 12:28:39;;;;;;;4.03;1.75;;;23.10;99.90;;;;;;4977683;28;20074;-70
2023/05/20 12:31:05;;;;;;;5.95;2.15;;;23.40;99.90;;;;;;4977952;28;20051;-69
2023/05/20 12:33:30;;;;;;;6.28;2.70;;;23.50;99.90;;;;;;4978338;28;20118;-68
2023/05/20 12:35:56;;;;;;;7.10;2.83;;;23.30;99.90;;;;;;4977989;28;20047;-67
2023/05/20 12:38:22;;;;;;;5.25;1.70;;;23.40;99.90;;;;;;4978109;28;20038;-69
2023/05/20 12:40:48;;;;;;;5.47;1.70;;;23.60;99.90;;;;;;4977876;28;20039;-78
2023/05/20 12:43:13;;;;;;;5.05;2.45;;;23.50;99.90;;;;;;4960674;28;20039;-78
2023/05/20 12:45:39;;;;;;;6.65;2.65;;;23.20;99.90;;;;;;4960947;28;20198;-78